createdAt,value
2017-10-20T00:00:05.235Z,143.33
2017-10-20T00:02:32.561Z,143.47
2017-10-20T00:04:59.945Z,138.10
2017-10-20T00:07:28.243Z,131.07
2017-10-20T00:09:55.614Z,130.83
2017-10-20T00:12:22.917Z,124.33
2017-10-20T00:14:50.240Z,126.47
2017-10-20T00:17:17.569Z,120.77
2017-10-20T00:19:44.925Z,117.90
2017-10-20T00:22:12.588Z,118.00
2017-10-20T00:24:39.921Z,110.97
2017-10-20T00:27:07.251Z,119.57
2017-10-20T00:29:34.565Z,118.23
2017-10-20T00:32:01.930Z,119.23
2017-10-20T00:34:29.246Z,127.37
2017-10-20T00:36:56.569Z,103.77
2017-10-20T00:39:23.950Z,113.10
2017-10-20T00:41:51.302Z,111.53
2017-10-20T00:44:18.621Z,120.03
2017-10-20T00:46:45.952Z,112.93
2017-10-20T00:49:13.283Z,121.00
2017-10-20T00:51:40.626Z,115.87
2017-10-20T00:54:07.950Z,117.10
2017-10-20T00:56:35.262Z,115.00
2017-10-20T00:59:02.590Z,118.47
2017-10-20T01:01:29.971Z,111.27
2017-10-20T01:03:57.325Z,106.77
2017-10-20T01:06:25.630Z,113.87
2017-10-20T01:08:52.975Z,110.67
2017-10-20T01:11:20.294Z,105.00
2017-10-20T01:13:47.966Z,100.83
2017-10-20T01:16:15.304Z,107.47
2017-10-20T01:18:42.663Z,101.57
2017-10-20T01:21:09.959Z,111.67
2017-10-20T01:23:37.306Z,111.83
2017-10-20T01:26:04.657Z,87.57
2017-10-20T01:28:31.981Z,100.27
2017-10-20T01:30:59.302Z,102.37
2017-10-20T01:33:26.630Z,90.80
2017-10-20T01:35:54.048Z,94.60
2017-10-20T01:38:21.371Z,113.20
2017-10-20T01:40:48.676Z,105.40
2017-10-20T01:43:15.993Z,98.47
2017-10-20T01:45:43.321Z,102.93
2017-10-20T01:48:10.633Z,99.20
2017-10-20T01:50:37.950Z,99.80
2017-10-20T01:53:05.257Z,104.03
2017-10-20T01:55:32.624Z,92.00
2017-10-20T01:57:59.964Z,89.80
2017-10-20T02:00:27.289Z,95.43
2017-10-20T02:02:54.882Z,96.50
2017-10-20T02:05:22.365Z,92.37
2017-10-20T02:07:49.668Z,98.80
2017-10-20T02:10:17.334Z,108.00
2017-10-20T02:12:44.635Z,103.10
2017-10-20T02:15:11.980Z,101.30
2017-10-20T02:17:39.309Z,113.43
2017-10-20T02:20:06.622Z,97.10
2017-10-20T02:22:33.998Z,100.07
2017-10-20T02:25:01.319Z,94.93
2017-10-20T02:27:28.623Z,94.63
2017-10-20T02:29:55.962Z,87.50
2017-10-20T02:32:23.290Z,83.17
2017-10-20T02:34:50.606Z,89.77
2017-10-20T02:37:17.920Z,81.90
2017-10-20T02:39:45.220Z,91.03
2017-10-20T02:42:12.541Z,86.77
2017-10-20T02:44:39.872Z,86.53
2017-10-20T02:47:07.232Z,89.30
2017-10-20T02:49:34.529Z,79.80
2017-10-20T02:52:01.868Z,81.47
2017-10-20T02:54:29.197Z,76.50
2017-10-20T02:56:56.553Z,96.53
2017-10-20T02:59:23.898Z,83.57
2017-10-20T03:01:51.213Z,85.07
2017-10-20T03:04:18.538Z,89.43
2017-10-20T03:06:45.849Z,90.37
2017-10-20T03:09:13.171Z,91.83
2017-10-20T03:11:41.468Z,86.60
2017-10-20T03:14:08.839Z,84.13
2017-10-20T03:16:36.137Z,82.93
2017-10-20T03:19:03.457Z,84.50
2017-10-20T03:21:30.776Z,80.90
2017-10-20T03:23:58.096Z,88.10
2017-10-20T03:26:25.399Z,85.63
2017-10-20T03:28:52.733Z,93.03
2017-10-20T03:31:20.032Z,81.23
2017-10-20T03:33:47.377Z,93.80
2017-10-20T03:36:14.669Z,78.30
2017-10-20T03:38:42.005Z,79.37
2017-10-20T03:41:09.314Z,77.17
2017-10-20T03:43:36.630Z,85.77
2017-10-20T03:46:03.965Z,82.40
2017-10-20T03:48:31.256Z,78.53
2017-10-20T03:50:59.500Z,82.20
2017-10-20T03:53:27.772Z,83.00
2017-10-20T03:55:55.120Z,75.13
2017-10-20T03:58:22.432Z,73.30
2017-10-20T04:00:49.774Z,81.80
2017-10-20T04:03:17.118Z,87.27
2017-10-20T04:05:45.353Z,74.43
2017-10-20T04:08:12.683Z,80.23
2017-10-20T04:10:40.006Z,80.97
2017-10-20T04:13:07.304Z,79.33
2017-10-20T04:15:34.629Z,83.87
2017-10-20T04:18:01.960Z,78.53
2017-10-20T04:20:29.285Z,83.87
2017-10-20T04:22:56.588Z,82.00
2017-10-20T04:25:23.906Z,76.93
2017-10-20T04:27:51.205Z,80.80
2017-10-20T04:30:18.519Z,84.90
2017-10-20T04:32:45.874Z,82.37
2017-10-20T04:35:13.177Z,78.90
2017-10-20T04:37:40.509Z,77.87
2017-10-20T04:40:07.809Z,77.27
2017-10-20T04:42:35.147Z,68.57
2017-10-20T04:45:03.260Z,72.60
2017-10-20T04:47:30.609Z,77.97
2017-10-20T04:49:57.918Z,73.67
2017-10-20T04:52:25.246Z,70.73
2017-10-20T04:54:52.558Z,68.40
2017-10-20T04:57:19.906Z,74.87
2017-10-20T04:59:47.234Z,70.30
2017-10-20T05:02:15.449Z,72.00
2017-10-20T05:04:42.937Z,69.57
2017-10-20T05:07:10.247Z,74.83
2017-10-20T05:09:37.573Z,79.13
2017-10-20T05:12:04.897Z,71.00
2017-10-20T05:14:32.237Z,68.27
2017-10-20T05:16:59.771Z,74.73
2017-10-20T05:19:27.128Z,74.30
2017-10-20T05:21:54.516Z,77.27
2017-10-20T05:24:21.833Z,88.60
2017-10-20T05:26:49.136Z,83.73
2017-10-20T05:29:16.469Z,82.37
2017-10-20T05:31:43.773Z,82.73
2017-10-20T05:34:11.134Z,74.97
2017-10-20T05:36:38.429Z,77.27
2017-10-20T05:39:05.764Z,76.20
2017-10-20T05:41:33.086Z,77.57
2017-10-20T05:44:00.392Z,75.97
2017-10-20T05:46:27.750Z,74.03
2017-10-20T05:48:55.227Z,79.70
2017-10-20T05:51:22.625Z,72.63
2017-10-20T05:53:49.941Z,83.83
2017-10-20T05:56:17.256Z,73.43
2017-10-20T05:58:44.556Z,81.50
2017-10-20T06:01:11.884Z,74.20
2017-10-20T06:03:39.192Z,76.30
2017-10-20T06:06:06.533Z,76.27
2017-10-20T06:08:33.857Z,66.53
2017-10-20T06:11:01.157Z,75.57
2017-10-20T06:13:28.475Z,69.73
2017-10-20T06:15:55.790Z,77.50
2017-10-20T06:18:23.175Z,75.17
2017-10-20T06:20:50.474Z,72.70
2017-10-20T06:23:17.821Z,75.70
2017-10-20T06:25:45.171Z,74.70
2017-10-20T06:28:12.553Z,77.77
2017-10-20T06:30:40.889Z,77.20
2017-10-20T06:33:08.222Z,77.27
2017-10-20T06:35:35.535Z,71.10
2017-10-20T06:38:02.848Z,78.10
2017-10-20T06:40:30.161Z,75.70
2017-10-20T06:42:57.479Z,71.77
2017-10-20T06:45:24.798Z,72.37
2017-10-20T06:47:52.140Z,72.50
2017-10-20T06:50:19.679Z,67.90
2017-10-20T06:52:46.993Z,75.17
2017-10-20T06:55:14.628Z,65.17
2017-10-20T06:57:41.942Z,67.70
2017-10-20T07:00:09.281Z,74.73
2017-10-20T07:02:36.684Z,72.93
2017-10-20T07:05:04.006Z,68.90
2017-10-20T07:07:31.313Z,74.67
2017-10-20T07:09:58.648Z,67.60
2017-10-20T07:12:25.959Z,67.07
2017-10-20T07:14:53.284Z,67.97
2017-10-20T07:17:20.643Z,72.43
2017-10-20T07:19:49.978Z,64.63
2017-10-20T07:22:17.297Z,71.10
2017-10-20T07:24:44.694Z,67.23
2017-10-20T07:27:12.026Z,74.40
2017-10-20T07:29:39.368Z,76.33
2017-10-20T07:32:06.717Z,62.60
2017-10-20T07:34:34.003Z,69.93
2017-10-20T07:37:01.361Z,61.00
2017-10-20T07:39:28.669Z,63.87
2017-10-20T07:41:56.001Z,64.00
2017-10-20T07:44:23.353Z,66.47
2017-10-20T07:46:50.681Z,67.33
2017-10-20T07:49:17.985Z,63.07
2017-10-20T07:51:45.310Z,65.20
2017-10-20T07:54:12.622Z,65.97
2017-10-20T07:56:40.113Z,59.23
2017-10-20T07:59:07.425Z,66.63
2017-10-20T08:01:34.737Z,68.20
2017-10-20T08:04:02.041Z,71.37
2017-10-20T08:06:29.373Z,62.97
2017-10-20T08:08:56.693Z,63.57
2017-10-20T08:11:24.069Z,59.60
2017-10-20T08:13:51.360Z,62.00
2017-10-20T08:16:18.656Z,57.00
2017-10-20T08:18:46.006Z,58.63
2017-10-20T08:21:13.368Z,69.47
2017-10-20T08:23:40.745Z,60.10
2017-10-20T08:26:08.054Z,73.37
2017-10-20T08:28:35.393Z,58.23
2017-10-20T08:31:02.702Z,63.73
2017-10-20T08:33:30.065Z,63.20
2017-10-20T08:35:57.422Z,68.20
2017-10-20T08:38:24.777Z,58.43
2017-10-20T08:40:52.080Z,59.97
2017-10-20T08:43:19.422Z,55.23
2017-10-20T08:45:46.718Z,62.80
2017-10-20T08:48:14.102Z,61.70
2017-10-20T08:50:41.409Z,59.40
2017-10-20T08:53:08.753Z,57.00
2017-10-20T08:55:36.057Z,52.63
2017-10-20T08:58:03.367Z,51.93
2017-10-20T09:00:30.706Z,56.43
2017-10-20T09:02:58.152Z,58.03
2017-10-20T09:05:25.476Z,54.60
2017-10-20T09:07:52.771Z,56.87
2017-10-20T09:10:20.094Z,56.93
2017-10-20T09:12:47.412Z,54.87
2017-10-20T09:15:15.822Z,51.60
2017-10-20T09:17:43.125Z,52.87
2017-10-20T09:20:10.467Z,51.90
2017-10-20T09:22:37.764Z,49.30
2017-10-20T09:25:05.139Z,53.73
2017-10-20T09:27:32.454Z,54.57
2017-10-20T09:30:00.682Z,55.20
2017-10-20T09:32:28.036Z,56.43
2017-10-20T09:34:55.345Z,49.80
2017-10-20T09:37:22.669Z,52.63
2017-10-20T09:39:50.132Z,43.43
2017-10-20T09:42:17.460Z,47.07
2017-10-20T09:44:44.780Z,44.70
2017-10-20T09:47:12.098Z,40.10
2017-10-20T09:49:39.398Z,41.90
2017-10-20T09:52:06.775Z,48.17
2017-10-20T09:54:34.076Z,43.67
2017-10-20T09:57:01.404Z,47.70
2017-10-20T09:59:28.885Z,43.27
2017-10-20T10:01:57.614Z,42.27
2017-10-20T10:04:24.916Z,41.00
2017-10-20T10:06:52.239Z,42.47
2017-10-20T10:09:19.578Z,38.63
2017-10-20T10:11:46.964Z,38.87
2017-10-20T10:14:17.684Z,35.73
2017-10-20T10:16:45.108Z,34.70
2017-10-20T10:19:12.431Z,37.77
2017-10-20T10:21:39.765Z,38.73
2017-10-20T10:24:07.104Z,39.97
2017-10-20T10:26:34.540Z,35.47
2017-10-20T10:29:01.882Z,35.40
2017-10-20T10:31:29.184Z,36.03
2017-10-20T10:33:56.513Z,39.63
2017-10-20T10:36:25.771Z,33.87
2017-10-20T10:38:53.148Z,39.33
2017-10-20T10:41:21.966Z,34.17
2017-10-20T10:43:49.316Z,38.07
2017-10-20T10:46:16.623Z,41.63
2017-10-20T10:48:43.965Z,38.80
2017-10-20T10:51:11.293Z,34.20
2017-10-20T10:53:38.627Z,36.47
2017-10-20T10:56:06.081Z,36.53
2017-10-20T10:58:33.388Z,37.83
2017-10-20T11:01:02.683Z,34.00
2017-10-20T11:03:30.016Z,34.83
2017-10-20T11:06:03.335Z,37.03
2017-10-20T11:08:36.406Z,37.00
2017-10-20T11:11:09.648Z,32.70
2017-10-20T11:13:37.108Z,37.70
2017-10-20T11:16:04.437Z,35.93
2017-10-20T11:18:31.737Z,35.37
2017-10-20T11:20:59.077Z,35.30
2017-10-20T11:23:26.380Z,37.60
2017-10-20T11:25:54.757Z,37.23
2017-10-20T11:28:22.076Z,33.97
2017-10-20T11:30:49.617Z,34.63
2017-10-20T11:33:16.937Z,36.37
2017-10-20T11:35:46.488Z,37.50
2017-10-20T11:38:14.022Z,34.90
2017-10-20T11:40:41.375Z,35.50
2017-10-20T11:43:08.696Z,35.97
2017-10-20T11:45:36.053Z,36.83
2017-10-20T11:48:03.474Z,35.80
2017-10-20T11:50:32.529Z,43.77
2017-10-20T11:52:59.845Z,38.47
2017-10-20T11:55:27.219Z,38.27
2017-10-20T11:57:55.947Z,40.80
2017-10-20T12:00:23.310Z,36.07
2017-10-20T12:02:50.645Z,41.90
2017-10-20T12:05:18.142Z,38.47
2017-10-20T12:07:45.525Z,35.70
2017-10-20T12:10:12.859Z,35.67
2017-10-20T12:12:40.190Z,36.70
2017-10-20T12:15:07.484Z,35.37
2017-10-20T12:17:34.838Z,38.83
2017-10-20T12:20:02.200Z,43.97
2017-10-20T12:22:30.016Z,37.87
2017-10-20T12:24:57.377Z,38.90
2017-10-20T12:27:25.024Z,36.07
2017-10-20T12:29:52.484Z,36.60
2017-10-20T12:32:19.793Z,37.90
2017-10-20T12:34:48.917Z,38.90
2017-10-20T12:37:16.345Z,36.43
2017-10-20T12:39:43.913Z,38.23
2017-10-20T12:42:11.257Z,38.63
2017-10-20T12:44:38.581Z,37.00
2017-10-20T12:47:05.989Z,41.77
2017-10-20T12:49:33.487Z,35.43
2017-10-20T12:52:00.825Z,37.20
2017-10-20T12:54:28.401Z,41.63
2017-10-20T12:56:55.808Z,35.80
2017-10-20T12:59:23.161Z,39.13
2017-10-20T13:01:52.020Z,34.30
2017-10-20T13:04:19.370Z,37.20
2017-10-20T13:06:46.774Z,37.27
2017-10-20T13:09:14.315Z,39.30
2017-10-20T13:11:41.660Z,40.27
2017-10-20T13:14:08.952Z,39.90
2017-10-20T13:16:36.280Z,34.33
2017-10-20T13:19:03.584Z,35.37
2017-10-20T13:21:31.018Z,38.13
2017-10-20T13:23:58.349Z,39.57
2017-10-20T13:26:25.740Z,41.23
2017-10-20T13:28:53.261Z,40.67
2017-10-20T13:31:20.738Z,38.40
2017-10-20T13:33:48.046Z,35.70
2017-10-20T13:36:15.360Z,39.60
2017-10-20T13:38:44.299Z,35.40
2017-10-20T13:41:11.614Z,39.33
2017-10-20T13:43:38.956Z,43.77
2017-10-20T13:46:06.301Z,38.10
2017-10-20T13:48:34.849Z,41.13
2017-10-20T13:51:02.222Z,42.33
2017-10-20T13:53:29.587Z,42.10
2017-10-20T13:55:56.920Z,41.17
2017-10-20T13:58:24.223Z,43.83
2017-10-20T14:00:51.540Z,41.13
2017-10-20T14:03:18.863Z,40.50
2017-10-20T14:05:46.175Z,41.17
2017-10-20T14:08:13.499Z,45.73
2017-10-20T14:10:40.964Z,36.40
2017-10-20T14:13:08.300Z,41.20
2017-10-20T14:15:35.602Z,43.50
2017-10-20T14:18:04.316Z,38.30
2017-10-20T14:20:31.662Z,41.73
2017-10-20T14:22:59.991Z,36.70
2017-10-20T14:25:29.085Z,44.30
2017-10-20T14:27:56.440Z,36.97
2017-10-20T14:30:23.873Z,40.53
2017-10-20T14:32:52.525Z,38.83
2017-10-20T14:35:19.972Z,44.67
2017-10-20T14:37:47.349Z,39.73
2017-10-20T14:40:14.791Z,44.80
2017-10-20T14:42:44.880Z,42.60
2017-10-20T14:45:12.367Z,43.90
2017-10-20T14:47:42.966Z,43.83
2017-10-20T14:50:10.288Z,45.97
2017-10-20T14:52:38.478Z,44.20
2017-10-20T14:55:05.897Z,42.50
2017-10-20T14:57:33.303Z,46.27
2017-10-20T15:00:00.641Z,42.17
2017-10-20T15:02:28.278Z,50.37
2017-10-20T15:04:55.740Z,47.60
2017-10-20T15:07:23.082Z,51.67
2017-10-20T15:09:50.516Z,48.40
2017-10-20T15:12:17.906Z,53.60
2017-10-20T15:14:45.400Z,63.70
2017-10-20T15:17:13.027Z,60.57
2017-10-20T15:19:40.362Z,61.53
2017-10-20T15:22:07.706Z,55.33
2017-10-20T15:24:35.115Z,58.77
2017-10-20T15:27:03.237Z,53.20
2017-10-20T15:29:31.771Z,50.30
2017-10-20T15:31:59.185Z,50.23
2017-10-20T15:34:26.492Z,55.23
2017-10-20T15:36:54.109Z,49.83
2017-10-20T15:39:23.229Z,46.53
2017-10-20T15:41:50.626Z,46.20
2017-10-20T15:44:17.997Z,52.97
2017-10-20T15:46:45.448Z,54.50
2017-10-20T15:49:12.813Z,53.47
2017-10-20T15:51:41.438Z,51.63
2017-10-20T15:54:08.801Z,59.70
2017-10-20T15:56:36.100Z,60.90
2017-10-20T15:59:03.453Z,59.23
2017-10-20T16:01:30.848Z,50.70
2017-10-20T16:03:58.198Z,56.27
2017-10-20T16:06:25.795Z,56.83
2017-10-20T16:08:53.197Z,56.93
2017-10-20T16:11:20.495Z,59.33
2017-10-20T16:13:47.884Z,55.00
2017-10-20T16:16:15.178Z,56.70
2017-10-20T16:18:42.496Z,59.13
2017-10-20T16:21:09.805Z,61.47
2017-10-20T16:23:37.147Z,58.67
2017-10-20T16:26:04.485Z,66.40
2017-10-20T16:28:31.801Z,56.53
2017-10-20T16:30:59.140Z,56.30
2017-10-20T16:33:26.435Z,59.47
2017-10-20T16:35:53.786Z,56.73
2017-10-20T16:38:21.148Z,72.83
2017-10-20T16:40:48.465Z,69.37
2017-10-20T16:43:15.769Z,59.77
2017-10-20T16:45:43.139Z,57.13
2017-10-20T16:48:10.450Z,60.13
2017-10-20T16:50:37.785Z,52.63
2017-10-20T16:53:05.140Z,56.30
2017-10-20T16:55:32.468Z,56.07
2017-10-20T16:57:59.792Z,53.37
2017-10-20T17:00:27.132Z,52.50
2017-10-20T17:02:54.461Z,49.20
2017-10-20T17:05:21.805Z,63.67
2017-10-20T17:07:49.119Z,53.77
2017-10-20T17:10:16.422Z,52.07
2017-10-20T17:12:43.735Z,60.63
2017-10-20T17:15:11.049Z,51.40
2017-10-20T17:17:38.433Z,53.80
2017-10-20T17:20:05.753Z,83.83
2017-10-20T17:22:33.168Z,76.10
2017-10-20T17:25:00.467Z,96.30
2017-10-20T17:27:27.788Z,62.93
2017-10-20T17:29:56.283Z,52.67
2017-10-20T17:32:23.680Z,67.97
2017-10-20T17:34:50.977Z,57.67
2017-10-20T17:37:18.302Z,53.13
2017-10-20T17:39:45.612Z,58.17
2017-10-20T17:42:12.932Z,59.33
2017-10-20T17:44:40.253Z,59.90
2017-10-20T17:47:07.559Z,66.73
2017-10-20T17:49:35.188Z,63.07
2017-10-20T17:52:02.516Z,60.03
2017-10-20T17:54:29.988Z,65.80
2017-10-20T17:56:57.292Z,59.07
2017-10-20T17:59:24.641Z,54.97
2017-10-20T18:01:51.941Z,49.53
2017-10-20T18:04:19.269Z,60.17
2017-10-20T18:06:46.568Z,53.10
2017-10-20T18:09:13.922Z,52.93
2017-10-20T18:11:41.233Z,54.00
2017-10-20T18:14:08.535Z,54.70
2017-10-20T18:16:35.843Z,57.63
2017-10-20T18:19:03.153Z,55.03
2017-10-20T18:21:30.474Z,62.87
2017-10-20T18:23:57.804Z,55.97
2017-10-20T18:26:25.433Z,54.43
2017-10-20T18:28:52.756Z,51.90
2017-10-20T18:31:20.898Z,55.53
2017-10-20T18:33:48.209Z,54.03
2017-10-20T18:36:15.816Z,52.00
2017-10-20T18:38:43.178Z,49.90
2017-10-20T18:41:10.544Z,53.40
2017-10-20T18:43:37.832Z,62.80
2017-10-20T18:46:05.484Z,57.43
2017-10-20T18:48:32.784Z,58.27
2017-10-20T18:51:00.093Z,57.43
2017-10-20T18:53:27.422Z,63.63
2017-10-20T18:55:54.741Z,69.83
2017-10-20T18:58:22.058Z,78.53
2017-10-20T19:00:49.392Z,70.00
2017-10-20T19:03:16.860Z,73.77
2017-10-20T19:05:44.161Z,75.53
2017-10-20T19:08:11.491Z,70.80
2017-10-20T19:10:38.966Z,77.50
2017-10-20T19:13:06.290Z,84.33
2017-10-20T19:15:33.594Z,80.77
2017-10-20T19:18:00.917Z,73.40
2017-10-20T19:20:28.228Z,84.20
2017-10-20T19:22:55.557Z,118.80
2017-10-20T19:25:22.870Z,90.80
2017-10-20T19:27:50.167Z,62.97
2017-10-20T19:30:17.513Z,78.60
2017-10-20T19:32:44.816Z,65.03
2017-10-20T19:35:12.144Z,76.13
2017-10-20T19:37:39.454Z,62.50
2017-10-20T19:40:06.784Z,73.07
2017-10-20T19:42:34.089Z,71.03
2017-10-20T19:45:01.424Z,78.53
2017-10-20T19:47:28.724Z,93.70
2017-10-20T19:49:56.084Z,88.53
2017-10-20T19:52:23.429Z,77.17
2017-10-20T19:54:50.940Z,92.73
2017-10-20T19:57:18.299Z,96.93
2017-10-20T19:59:45.596Z,62.20
2017-10-20T20:02:12.910Z,64.00
2017-10-20T20:04:40.222Z,78.93
2017-10-20T20:07:07.544Z,62.60
2017-10-20T20:09:34.849Z,63.47
2017-10-20T20:12:02.211Z,59.47
2017-10-20T20:14:29.546Z,50.27
2017-10-20T20:16:56.855Z,52.10
2017-10-20T20:19:24.192Z,45.70
2017-10-20T20:21:51.518Z,49.50
2017-10-20T20:24:18.825Z,57.27
2017-10-20T20:26:46.153Z,53.00
2017-10-20T20:29:13.479Z,47.17
2017-10-20T20:31:40.781Z,52.97
2017-10-20T20:34:22.981Z,49.10
2017-10-20T20:36:50.313Z,51.47
2017-10-20T20:39:17.617Z,48.80
2017-10-20T20:41:44.972Z,46.70
2017-10-20T20:44:12.338Z,46.40
2017-10-20T20:46:39.648Z,38.87
2017-10-20T20:49:06.978Z,44.23
2017-10-20T20:51:34.274Z,41.53
2017-10-20T20:54:01.611Z,40.63
2017-10-20T20:56:28.950Z,41.20
2017-10-20T20:58:56.284Z,44.53
2017-10-20T21:01:23.592Z,38.53
2017-10-20T21:03:50.904Z,38.00
2017-10-20T21:06:18.235Z,40.70
2017-10-20T21:08:45.745Z,33.83
2017-10-20T21:11:13.033Z,38.63
2017-10-20T21:13:40.361Z,34.83
2017-10-20T21:16:07.656Z,36.67
2017-10-20T21:18:34.988Z,31.60
2017-10-20T21:21:02.293Z,35.30
2017-10-20T21:23:29.621Z,33.87
2017-10-20T21:25:56.929Z,35.00
2017-10-20T21:28:24.252Z,33.43
2017-10-20T21:30:51.574Z,35.70
2017-10-20T21:33:18.888Z,34.87
2017-10-20T21:35:46.216Z,36.13
2017-10-20T21:38:13.526Z,37.70
2017-10-20T21:40:40.837Z,33.90
2017-10-20T21:43:08.161Z,38.67
2017-10-20T21:45:35.533Z,35.93
2017-10-20T21:48:02.827Z,38.10
2017-10-20T21:50:30.182Z,33.03
2017-10-20T21:52:57.489Z,36.97
2017-10-20T21:55:24.812Z,39.40
2017-10-20T21:57:52.112Z,43.60
2017-10-20T22:00:19.503Z,40.00
2017-10-20T22:02:46.817Z,44.47
2017-10-20T22:05:14.173Z,46.67
2017-10-20T22:07:41.509Z,61.43
2017-10-20T22:10:08.827Z,79.63
2017-10-20T22:12:36.964Z,77.50
2017-10-20T22:15:04.282Z,60.50
2017-10-20T22:17:31.602Z,58.60
2017-10-20T22:19:58.916Z,46.00
2017-10-20T22:22:26.243Z,46.30
2017-10-20T22:24:53.567Z,42.10
2017-10-20T22:27:20.885Z,38.10
2017-10-20T22:29:48.180Z,37.43
2017-10-20T22:32:15.492Z,39.63
2017-10-20T22:34:42.799Z,39.73
2017-10-20T22:37:10.150Z,37.53
2017-10-20T22:39:37.454Z,39.57
2017-10-20T22:42:05.680Z,36.10
2017-10-20T22:44:33.026Z,36.60
2017-10-20T22:47:00.328Z,36.67
2017-10-20T22:49:27.660Z,39.87
2017-10-20T22:51:54.971Z,39.27
2017-10-20T22:54:22.297Z,39.47
2017-10-20T22:56:49.783Z,34.97
2017-10-20T22:59:17.138Z,33.53
2017-10-20T23:01:44.438Z,33.73
2017-10-20T23:04:12.268Z,29.70
2017-10-20T23:06:39.568Z,30.90
2017-10-20T23:09:06.928Z,28.17
2017-10-20T23:11:34.236Z,29.30
2017-10-20T23:14:01.592Z,25.70
2017-10-20T23:16:28.953Z,27.97
2017-10-20T23:18:56.300Z,27.30
2017-10-20T23:21:23.596Z,25.43
2017-10-20T23:23:51.229Z,29.63
2017-10-20T23:26:18.538Z,25.87
2017-10-20T23:28:46.465Z,27.27
2017-10-20T23:31:13.785Z,25.80
2017-10-20T23:33:41.130Z,26.43
2017-10-20T23:36:08.490Z,33.00
2017-10-20T23:38:35.804Z,24.23
2017-10-20T23:41:04.284Z,24.47
2017-10-20T23:43:31.608Z,29.13
2017-10-20T23:45:58.948Z,24.23
2017-10-20T23:48:26.248Z,23.83
2017-10-20T23:50:53.577Z,27.53
2017-10-20T23:53:20.881Z,26.03
2017-10-20T23:55:49.126Z,23.37
2017-10-20T23:58:16.439Z,25.50
